Terminal Aerodrome Forecast
Issued by NWS

Home | Current Version | Previous Version | Text Only | Print | Product List | Glossary On
Versions: 1 2 3 4 5 6 7 8 9 10 11 12 13 14 15 16 17 18 19 20 21 22 23 24 25 26
000
FTUS44 KLZK 301831 AAA
TAFLIT
TAF AMD
KLIT 301831Z 3019/0118 23015G24KT P6SM SCT015 OVC050
      TEMPO 3019/3020 -SHRA BKN015
     FM302000 25010G20KT P6SM SCT025 BKN050
      TEMPO 3020/3022 BKN025
     FM010000 23015G25KT P6SM SCT050 OVC100
     FM011400 26012KT P6SM SCT100 BKN250=

USA.gov is the U.S. government's official web portal to all federal, state and local government web resources and services.